Paradise Park, NE

7:52 PM CST on February 22, 2017 (GMT -0600)
Olde Towne | | Change Station

Elev 1050 ft 41.13 °N, 95.89 °W | Updated 80 days ago

Clear
Clear
43.3 °F
Feels Like 43 °F
N
0.1
Wind Variable Wind from SW
Gusts 0.1 mph

Today
High -- | Low -- °F
--% Chance of Precip.
Yesterday
High -- | Low -- °F
Precip. -- in
Pressure 29.74 in
Visibility 10.0 miles
Clouds Clear
Windchill 43 °F
Dew Point 37 °F
Humidity 77%
Rainfall in
Snow Depth Not available.
7:07 AM 6:06 PM
Waning Crescent, 13% visible
METAR KOFF 230058Z 33009KT 10SM CLR 17/01 A2972 RMK AO2A SLP070 T01650006 $
Pressure 29.74 in
Visibility 10.0 miles
Clouds Clear
Windchill 43 °F
Dew Point 37 °F
Humidity 77%
Rainfall in
Snow Depth Not available.
7:07 AM 6:06 PM
Waning Crescent, 13% visible
METAR KOFF 230058Z 33009KT 10SM CLR 17/01 A2972 RMK AO2A SLP070 T01650006 $

Get Your Daily Forecast Email!

Thanks for signing up!

Be on the lookout for a verification email in your inbox.

You'll start receiving the daily forecast at 8 AM.

×

10-Day Weather Forecast

Almanac

Astronomy

Feb. 22, 2017 Rise Set
Actual Time
Civil Twilight
Nautical Twilight
Astronomical Twilight
Moon
Length of Visible Light
Length of Day
Tomorrow will be .
, % of the Moon is Illuminated

Today's Extremes

State Highs State Lows

Community

WunderPhotos

Upload Photos

1,962,540 photos uploaded!

WunderBlog® & News

Nearby

Air Quality

  Air Quality AQ Index Pollutant
Not available.

Snow Depth

Station Depth Elevation

Earthquake Activity

City Distance Mag. Time & Date
Minimum magnitude displayed is 2.5.

Coastal Water Temperatures

Place Temperature

Stations

Nearby Weather Stations

Station Location Temp. Windchill Dew Point Humidity Wind Precip. Elev Updated Type
                   

Watches & Warnings

There are currently no watches in effect.